Time;durP1;ratioP1;P1;durP2;ratioP2;P2;SDS_P1;SDS_P2;PMS_P1;PMS_P2;Temp;Humidity;BMP_temperature;BMP_pressure;BME280_temperature;BME280_humidity;BME280_pressure;Samples;Min_cycle;Max_cycle;Signal;HPM_P1;HPM_P2
2023/06/16 00:00:12;;;;;;;8.38;5.47;;;16.20;99.90;;;;;;4130472;28;20541;-62
2023/06/16 00:02:13;;;;;;;7.40;5.60;;;16.20;99.90;;;;;;4130582;28;20034;-61
2023/06/16 00:04:17;;;;;;;6.20;5.30;;;16.20;99.90;;;;;;4129825;28;20042;-60
2023/06/16 00:06:19;;;;;;;8.98;5.68;;;16.20;99.90;;;;;;4130649;28;20038;-60
2023/06/16 00:08:21;;;;;;;7.25;5.70;;;16.20;99.90;;;;;;4129586;28;20034;-62
2023/06/16 00:10:22;;;;;;;7.10;4.95;;;16.20;99.90;;;;;;4130964;28;20097;-61
2023/06/16 00:12:23;;;;;;;9.02;5.20;;;16.20;99.90;;;;;;4128110;28;20042;-60
2023/06/16 00:14:24;;;;;;;7.68;5.45;;;16.20;99.90;;;;;;4130778;28;20379;-60
2023/06/16 00:16:26;;;;;;;7.35;5.78;;;16.20;99.90;;;;;;4129709;28;20026;-61
2023/06/16 00:18:28;;;;;;;7.00;5.60;;;16.20;99.90;;;;;;4130541;28;20038;-62
2023/06/16 00:20:29;;;;;;;7.35;5.20;;;16.20;99.90;;;;;;4128896;28;20085;-60
2023/06/16 00:22:32;;;;;;;8.27;5.47;;;16.20;99.90;;;;;;4130382;28;21175;-60
2023/06/16 00:24:33;;;;;;;7.25;5.70;;;16.20;99.90;;;;;;4128880;28;20039;-61
2023/06/16 00:26:35;;;;;;;8.95;6.25;;;16.20;99.90;;;;;;4130147;28;20084;-60
2023/06/16 00:28:38;;;;;;;7.55;5.80;;;16.20;99.90;;;;;;4129392;28;20042;-61
2023/06/16 00:30:39;;;;;;;7.20;5.05;;;16.20;99.90;;;;;;4129447;28;20475;-61
2023/06/16 00:32:40;;;;;;;8.15;5.32;;;16.30;99.90;;;;;;4130002;28;20108;-61
2023/06/16 00:34:41;;;;;;;6.38;4.93;;;16.20;99.90;;;;;;4129827;28;20515;-61
2023/06/16 00:36:42;;;;;;;7.53;5.10;;;16.20;99.90;;;;;;4129607;28;20438;-60
2023/06/16 00:38:44;;;;;;;7.90;5.38;;;16.20;99.90;;;;;;4129556;28;20031;-61
2023/06/16 00:40:45;;;;;;;7.22;5.53;;;16.10;99.90;;;;;;4130385;28;20038;-60
2023/06/16 00:42:46;;;;;;;7.75;5.28;;;16.10;99.90;;;;;;4129400;28;20097;-61
2023/06/16 00:44:47;;;;;;;6.38;5.35;;;16.10;99.90;;;;;;4130805;28;20038;-61
2023/06/16 00:46:49;;;;;;;9.85;6.00;;;16.10;99.90;;;;;;4127506;28;20581;-61
2023/06/16 00:48:50;;;;;;;8.07;5.75;;;16.10;99.90;;;;;;4130315;28;20069;-60
2023/06/16 00:50:51;;;;;;;8.13;6.22;;;16.10;99.90;;;;;;4129168;28;20391;-60
2023/06/16 00:52:53;;;;;;;7.82;6.03;;;16.10;99.90;;;;;;4129848;28;20085;-61
2023/06/16 00:54:54;;;;;;;6.95;5.63;;;16.10;99.90;;;;;;4128695;28;20046;-61
2023/06/16 00:56:56;;;;;;;8.43;5.93;;;16.10;99.90;;;;;;4130293;28;20030;-62
2023/06/16 00:58:57;;;;;;;7.18;5.93;;;16.00;99.90;;;;;;4129084;28;20073;-61
2023/06/16 01:00:59;;;;;;;10.32;6.00;;;16.10;99.90;;;;;;4129794;28;20027;-61
2023/06/16 01:03:04;;;;;;;6.40;5.38;;;16.00;99.90;;;;;;4129283;28;20521;-61
2023/06/16 01:05:08;;;;;;;6.75;5.13;;;16.00;99.90;;;;;;4129493;28;20089;-61
2023/06/16 01:07:36;;;;;;;7.68;5.93;;;16.00;99.90;;;;;;4129351;28;20038;-62
2023/06/16 01:09:44;;;;;;;7.88;6.18;;;16.00;99.90;;;;;;4129328;28;20426;-62
2023/06/16 01:12:08;;;;;;;7.72;6.20;;;15.90;99.90;;;;;;4129053;28;20065;-61
2023/06/16 01:14:19;;;;;;;9.90;7.50;;;15.80;99.90;;;;;;4129705;28;20089;-61
2023/06/16 01:16:28;;;;;;;11.05;7.43;;;15.80;99.90;;;;;;4128471;28;20097;-61
2023/06/16 01:18:33;;;;;;;11.32;7.00;;;15.80;99.90;;;;;;4129871;28;20080;-62
2023/06/16 01:20:52;;;;;;;9.43;6.75;;;15.80;99.90;;;;;;4128604;28;20034;-60
2023/06/16 01:22:53;;;;;;;9.80;6.63;;;15.80;99.90;;;;;;4129710;28;20097;-61
2023/06/16 01:24:59;;;;;;;11.45;7.10;;;15.80;99.90;;;;;;4128642;28;20382;-62
2023/06/16 01:27:01;;;;;;;8.95;6.90;;;15.80;99.90;;;;;;4127837;28;20474;-61
2023/06/16 01:29:08;;;;;;;9.02;7.53;;;15.80;99.90;;;;;;4129004;28;20035;-60
2023/06/16 01:31:12;;;;;;;8.35;6.65;;;15.70;99.90;;;;;;4129475;28;20072;-60
2023/06/16 01:33:15;;;;;;;10.63;6.53;;;15.70;99.90;;;;;;4128882;28;20116;-61
2023/06/16 01:35:16;;;;;;;9.73;6.80;;;15.60;99.90;;;;;;4128832;28;20081;-62
2023/06/16 01:37:19;;;;;;;7.97;6.47;;;15.60;99.90;;;;;;4129194;28;20065;-61
2023/06/16 01:39:21;;;;;;;9.77;6.82;;;15.60;99.90;;;;;;4128593;28;20030;-61
2023/06/16 01:41:22;;;;;;;9.52;6.72;;;15.60;99.90;;;;;;4127328;28;20565;-60
2023/06/16 01:43:24;;;;;;;12.13;6.85;;;15.60;99.90;;;;;;4128627;28;20113;-61
2023/06/16 01:45:27;;;;;;;9.95;6.47;;;15.70;99.90;;;;;;4129977;28;20483;-61
2023/06/16 01:47:29;;;;;;;7.07;5.70;;;15.70;99.90;;;;;;4127962;28;20054;-60
2023/06/16 01:49:32;;;;;;;10.00;6.95;;;15.70;99.90;;;;;;4129451;28;20034;-61
2023/06/16 01:51:33;;;;;;;8.77;6.28;;;15.70;99.90;;;;;;4128407;28;20022;-61
2023/06/16 01:53:34;;;;;;;9.70;6.65;;;15.70;99.90;;;;;;4129474;28;20022;-62
2023/06/16 01:55:35;;;;;;;8.65;6.53;;;15.80;99.90;;;;;;4128359;28;20457;-63
2023/06/16 01:57:36;;;;;;;11.88;7.03;;;15.80;99.90;;;;;;4129067;28;20082;-61
2023/06/16 01:59:37;;;;;;;8.98;6.85;;;15.80;99.90;;;;;;4126428;28;20042;-61
2023/06/16 02:02:02;;;;;;;9.25;7.00;;;15.90;99.90;;;;;;4129201;28;20088;-61
2023/06/16 02:04:25;;;;;;;9.40;6.90;;;15.90;99.90;;;;;;4127672;28;20038;-61
2023/06/16 02:06:37;;;;;;;10.40;6.53;;;15.80;99.90;;;;;;4129333;28;20081;-62
2023/06/16 02:08:41;;;;;;;8.52;5.60;;;15.80;99.90;;;;;;4128225;28;20074;-61
2023/06/16 02:10:43;;;;;;;8.80;5.75;;;15.80;99.90;;;;;;4128791;28;20042;-60
2023/06/16 02:12:45;;;;;;;9.40;6.10;;;15.70;99.90;;;;;;4143094;28;20142;-61
2023/06/16 02:14:48;;;;;;;9.82;6.30;;;15.70;99.90;;;;;;4129696;28;20418;-61
2023/06/16 02:16:52;;;;;;;9.55;6.10;;;15.70;99.90;;;;;;4128188;28;20034;-61
2023/06/16 02:18:57;;;;;;;8.82;5.97;;;15.70;99.90;;;;;;4129074;28;20022;-61
2023/06/16 02:20:59;;;;;;;7.50;5.90;;;15.70;99.90;;;;;;4127708;28;20511;-64
2023/06/16 02:23:00;;;;;;;8.80;6.38;;;15.70;99.90;;;;;;4128518;28;20100;-63
2023/06/16 02:25:01;;;;;;;11.55;6.90;;;15.70;99.90;;;;;;4128515;28;20097;-63
2023/06/16 02:27:03;;;;;;;14.88;6.57;;;15.80;99.90;;;;;;4128099;28;20446;-68
2023/06/16 02:29:04;;;;;;;11.20;6.80;;;15.80;99.90;;;;;;4128694;28;20042;-63
2023/06/16 02:31:05;;;;;;;8.18;6.65;;;15.80;99.90;;;;;;4127414;28;20042;-69
2023/06/16 02:33:07;;;;;;;10.95;6.90;;;15.80;99.90;;;;;;4129045;28;20085;-61
2023/06/16 02:35:08;;;;;;;8.68;6.35;;;15.80;99.90;;;;;;4127145;28;20435;-62
2023/06/16 02:37:11;;;;;;;11.85;7.47;;;15.80;99.90;;;;;;4128740;28;20034;-62
2023/06/16 02:39:13;;;;;;;9.55;6.00;;;15.80;99.90;;;;;;4127188;28;20030;-62
2023/06/16 02:41:14;;;;;;;10.32;7.05;;;15.80;99.90;;;;;;4128999;28;20046;-61
2023/06/16 02:43:15;;;;;;;7.95;6.15;;;15.80;99.90;;;;;;4127885;28;20556;-61
2023/06/16 02:45:17;;;;;;;10.90;6.47;;;15.80;99.90;;;;;;4128724;28;20034;-61
2023/06/16 02:47:18;;;;;;;28.05;18.73;;;15.80;99.90;;;;;;4127652;28;20522;-61
2023/06/16 02:49:20;;;;;;;18.90;13.32;;;15.80;99.90;;;;;;4128876;28;20553;-62
2023/06/16 02:51:21;;;;;;;13.18;9.48;;;15.80;99.90;;;;;;4127540;28;20019;-62
2023/06/16 02:53:24;;;;;;;12.15;7.35;;;15.80;99.90;;;;;;4128564;28;20077;-64
2023/06/16 02:55:25;;;;;;;9.40;6.78;;;15.80;99.90;;;;;;4130800;28;20096;-65
2023/06/16 02:57:26;;;;;;;7.97;6.82;;;15.80;99.90;;;;;;4131300;28;20022;-64
2023/06/16 02:59:28;;;;;;;8.52;6.22;;;15.90;99.90;;;;;;4131240;28;20084;-64
2023/06/16 03:01:29;;;;;;;8.38;6.40;;;15.90;99.90;;;;;;4130918;28;20027;-63
2023/06/16 03:03:32;;;;;;;10.27;7.30;;;15.80;99.90;;;;;;4131946;28;20042;-62
2023/06/16 03:05:34;;;;;;;10.05;7.40;;;15.80;99.90;;;;;;4130899;28;20080;-62
2023/06/16 03:07:35;;;;;;;8.90;6.35;;;15.80;99.90;;;;;;4131635;28;20045;-63
2023/06/16 03:09:36;;;;;;;9.80;6.80;;;15.80;99.90;;;;;;4130473;28;20396;-62
2023/06/16 03:11:38;;;;;;;9.55;6.13;;;15.80;99.90;;;;;;4131670;28;20038;-61
2023/06/16 03:13:40;;;;;;;8.32;6.13;;;15.80;99.90;;;;;;4130128;28;20038;-62
2023/06/16 03:15:43;;;;;;;9.38;6.63;;;15.70;99.90;;;;;;4132156;28;20034;-64
2023/06/16 03:17:44;;;;;;;8.10;6.18;;;15.70;99.90;;;;;;4130605;28;20027;-63
2023/06/16 03:19:49;;;;;;;8.43;6.25;;;15.80;99.90;;;;;;4131742;28;20085;-61
2023/06/16 03:21:50;;;;;;;9.18;6.28;;;15.80;99.90;;;;;;4128686;28;20804;-63
2023/06/16 03:23:51;;;;;;;11.35;6.68;;;15.90;99.90;;;;;;4131434;28;20042;-61
2023/06/16 03:25:53;;;;;;;10.20;6.70;;;15.90;99.90;;;;;;4130080;28;20043;-62
2023/06/16 03:27:54;;;;;;;9.07;6.40;;;15.90;99.90;;;;;;4130965;28;20038;-62
2023/06/16 03:29:55;;;;;;;8.93;6.13;;;15.90;99.90;;;;;;4130625;28;20533;-62
2023/06/16 03:31:56;;;;;;;8.07;6.20;;;15.90;99.90;;;;;;4130479;28;20027;-63
2023/06/16 03:33:58;;;;;;;6.28;5.40;;;16.00;99.90;;;;;;4131224;28;20042;-61
2023/06/16 03:35:59;;;;;;;12.73;6.32;;;16.00;99.90;;;;;;4129718;28;20038;-63
2023/06/16 03:38:00;;;;;;;7.45;6.05;;;16.00;99.90;;;;;;4131213;28;20439;-62
2023/06/16 03:40:06;;;;;;;7.75;5.75;;;16.00;99.90;;;;;;4129996;28;20534;-62
2023/06/16 03:42:07;;;;;;;6.80;5.20;;;16.00;99.90;;;;;;4131222;28;20540;-63
2023/06/16 03:44:08;;;;;;;7.45;6.00;;;16.10;99.90;;;;;;4129838;28;20384;-61
2023/06/16 03:46:09;;;;;;;7.05;5.90;;;16.10;99.90;;;;;;4131216;28;20066;-63
2023/06/16 03:48:10;;;;;;;6.32;5.25;;;16.10;99.90;;;;;;4129899;28;20109;-63
2023/06/16 03:50:12;;;;;;;7.47;5.85;;;16.10;99.90;;;;;;4130698;28;20050;-62
2023/06/16 03:52:13;;;;;;;8.00;5.68;;;16.10;99.90;;;;;;4129770;28;20038;-62
2023/06/16 03:54:17;;;;;;;8.20;5.47;;;16.10;99.90;;;;;;4130643;28;20423;-62
2023/06/16 03:56:19;;;;;;;7.90;5.93;;;16.20;99.90;;;;;;4130129;28;20022;-62
2023/06/16 03:58:20;;;;;;;7.97;5.43;;;16.20;99.90;;;;;;4130357;28;20027;-61
2023/06/16 04:00:21;;;;;;;8.13;5.75;;;16.10;99.90;;;;;;4130085;28;20026;-63
2023/06/16 04:02:22;;;;;;;6.13;5.30;;;16.10;99.90;;;;;;4129746;28;20557;-62
2023/06/16 04:04:27;;;;;;;8.02;5.30;;;16.20;99.90;;;;;;4130311;28;20030;-63
2023/06/16 04:06:28;;;;;;;7.82;5.20;;;16.20;99.90;;;;;;4128983;28;20093;-62
2023/06/16 04:08:29;;;;;;;7.80;6.10;;;16.20;99.90;;;;;;4130323;28;20058;-61
2023/06/16 04:10:30;;;;;;;7.18;5.53;;;16.20;99.90;;;;;;4129620;28;20062;-63
2023/06/16 04:12:31;;;;;;;8.15;5.68;;;16.20;99.90;;;;;;4130570;28;20538;-62
2023/06/16 04:14:32;;;;;;;9.50;6.50;;;16.20;99.90;;;;;;4128144;28;20078;-63
2023/06/16 04:16:33;;;;;;;7.15;6.15;;;16.20;99.90;;;;;;4129298;28;20039;-62
2023/06/16 04:18:35;;;;;;;7.78;5.75;;;16.20;99.90;;;;;;4129507;28;20491;-62
2023/06/16 04:20:36;;;;;;;8.05;5.95;;;16.20;99.90;;;;;;4130558;28;20475;-62
2023/06/16 04:22:38;;;;;;;9.25;6.05;;;16.20;99.90;;;;;;4129153;28;20042;-62
2023/06/16 04:24:39;;;;;;;7.70;6.07;;;16.20;99.90;;;;;;4144702;28;20046;-64
2023/06/16 04:26:43;;;;;;;7.78;5.97;;;16.20;99.90;;;;;;4129408;28;20038;-62
2023/06/16 04:28:45;;;;;;;8.35;6.32;;;16.30;99.90;;;;;;4129819;28;20046;-62
2023/06/16 04:30:46;;;;;;;8.55;6.00;;;16.20;99.90;;;;;;4129226;28;20046;-63
2023/06/16 04:32:49;;;;;;;7.00;5.85;;;16.30;99.90;;;;;;4128132;28;20026;-62
2023/06/16 04:34:52;;;;;;;7.25;5.45;;;16.30;99.90;;;;;;4128176;28;20042;-62
2023/06/16 04:36:57;;;;;;;7.43;5.60;;;16.30;99.90;;;;;;4129414;28;20101;-62
2023/06/16 04:38:59;;;;;;;5.47;4.93;;;16.40;99.90;;;;;;4129659;28;20019;-61
2023/06/16 04:41:00;;;;;;;6.63;4.43;;;16.40;99.90;;;;;;4128914;28;20050;-62
2023/06/16 04:43:01;;;;;;;7.38;5.20;;;16.40;99.90;;;;;;4129586;28;20038;-62
2023/06/16 04:45:02;;;;;;;8.60;4.70;;;16.50;99.90;;;;;;4128754;28;20042;-62
2023/06/16 04:47:04;;;;;;;6.55;4.78;;;16.50;99.90;;;;;;4130164;28;20026;-64
2023/06/16 04:49:05;;;;;;;5.78;4.97;;;16.50;99.90;;;;;;4128693;28;20042;-62
2023/06/16 04:51:06;;;;;;;7.13;4.90;;;16.50;99.90;;;;;;4130121;28;20499;-64
2023/06/16 04:53:08;;;;;;;5.07;4.53;;;16.50;99.90;;;;;;4128731;28;20096;-61
2023/06/16 04:55:09;;;;;;;4.53;4.07;;;16.50;99.90;;;;;;4130029;28;20030;-61
2023/06/16 04:57:10;;;;;;;4.43;4.03;;;16.50;99.90;;;;;;4128903;28;20034;-61
2023/06/16 04:59:12;;;;;;;5.40;4.00;;;16.50;99.90;;;;;;4129984;28;20422;-63
2023/06/16 05:01:13;;;;;;;4.93;4.10;;;16.50;99.90;;;;;;4128740;28;20022;-62
2023/06/16 05:03:14;;;;;;;5.22;4.72;;;16.50;99.90;;;;;;4128983;28;20050;-62
2023/06/16 05:05:16;;;;;;;5.68;4.45;;;16.60;99.90;;;;;;4128718;28;20034;-63
2023/06/16 05:07:17;;;;;;;4.78;3.55;;;16.60;99.90;;;;;;4128980;28;20018;-63
2023/06/16 05:09:20;;;;;;;5.22;4.28;;;16.60;99.90;;;;;;4129192;28;20057;-62
2023/06/16 05:11:21;;;;;;;5.18;4.00;;;16.60;99.90;;;;;;4128804;28;20081;-67
2023/06/16 05:13:23;;;;;;;4.13;3.72;;;16.60;99.90;;;;;;4129436;28;20023;-63
2023/06/16 05:15:24;;;;;;;4.60;3.80;;;16.60;99.90;;;;;;4143873;28;20030;-61
2023/06/16 05:17:25;;;;;;;5.80;3.85;;;16.60;99.90;;;;;;4128845;28;20439;-62
2023/06/16 05:19:27;;;;;;;7.63;4.32;;;16.60;99.90;;;;;;4128352;28;20053;-68
2023/06/16 05:21:28;;;;;;;6.38;5.07;;;16.70;99.90;;;;;;4129229;28;20034;-61
2023/06/16 05:23:29;;;;;;;9.65;5.10;;;16.70;99.90;;;;;;4127854;28;20034;-61
2023/06/16 05:25:31;;;;;;;10.10;4.43;;;16.80;99.90;;;;;;4128735;28;20046;-65
2023/06/16 05:27:32;;;;;;;22.75;7.95;;;16.80;99.90;;;;;;4128273;28;20018;-63
2023/06/16 05:29:33;;;;;;;5.68;4.22;;;16.70;99.90;;;;;;4128740;28;20096;-64
2023/06/16 05:31:35;;;;;;;5.22;4.55;;;16.60;99.90;;;;;;4127601;28;20042;-63
2023/06/16 05:33:36;;;;;;;5.47;4.43;;;16.60;99.90;;;;;;4128793;28;20046;-66
2023/06/16 05:35:38;;;;;;;5.80;4.35;;;16.60;99.90;;;;;;4127977;28;20057;-65
2023/06/16 05:37:39;;;;;;;8.77;5.18;;;16.50;99.90;;;;;;4128313;28;20430;-63
2023/06/16 05:39:40;;;;;;;8.02;5.70;;;16.60;99.90;;;;;;4128707;28;20034;-64
2023/06/16 05:41:42;;;;;;;7.25;6.05;;;16.60;99.90;;;;;;4128420;28;20022;-63
2023/06/16 05:43:43;;;;;;;8.73;5.97;;;16.60;99.90;;;;;;4128747;28;20034;-61
2023/06/16 05:45:45;;;;;;;8.57;5.55;;;16.70;99.90;;;;;;4128400;28;20123;-62
2023/06/16 05:47:46;;;;;;;7.88;6.30;;;16.70;99.90;;;;;;4129212;28;20034;-62
2023/06/16 05:49:47;;;;;;;6.93;5.78;;;16.70;99.90;;;;;;4128025;28;20034;-62
2023/06/16 05:51:48;;;;;;;7.55;5.40;;;16.70;99.90;;;;;;4129145;28;20038;-64
2023/06/16 05:53:49;;;;;;;7.78;5.50;;;16.70;99.90;;;;;;4127853;28;20069;-62
2023/06/16 05:55:50;;;;;;;6.25;5.40;;;16.80;99.90;;;;;;4128748;28;20042;-62
2023/06/16 05:57:51;;;;;;;9.20;5.25;;;16.90;99.90;;;;;;4127563;28;20038;-64
2023/06/16 05:59:53;;;;;;;9.63;5.38;;;17.00;99.90;;;;;;4129180;28;20026;-66
2023/06/16 06:01:55;;;;;;;6.43;5.43;;;17.10;99.90;;;;;;4126060;28;20038;-66
2023/06/16 06:03:56;;;;;;;7.38;5.70;;;17.10;99.90;;;;;;4128860;28;20034;-62
2023/06/16 06:05:57;;;;;;;8.25;5.68;;;17.20;99.90;;;;;;4128310;28;20418;-63
2023/06/16 06:07:59;;;;;;;6.63;5.63;;;17.20;99.90;;;;;;4128213;28;20042;-63
2023/06/16 06:10:00;;;;;;;11.15;6.55;;;17.20;99.90;;;;;;4128416;28;20380;-62
2023/06/16 06:12:01;;;;;;;7.68;6.07;;;17.30;99.90;;;;;;4128196;28;20368;-65
2023/06/16 06:14:02;;;;;;;8.05;5.90;;;17.40;99.90;;;;;;4128209;28;20088;-63
2023/06/16 06:16:04;;;;;;;7.38;5.85;;;17.50;99.90;;;;;;4127914;28;20093;-63
2023/06/16 06:18:05;;;;;;;8.18;6.30;;;17.60;99.90;;;;;;4128831;28;20042;-62
2023/06/16 06:20:06;;;;;;;7.25;5.38;;;17.50;99.90;;;;;;4127712;28;20129;-62
2023/06/16 06:22:07;;;;;;;15.25;7.05;;;17.50;99.90;;;;;;4128791;28;20450;-63
2023/06/16 06:24:09;;;;;;;8.98;6.32;;;17.50;99.90;;;;;;4127816;28;20557;-63
2023/06/16 06:26:10;;;;;;;9.07;6.47;;;17.40;99.90;;;;;;4129034;28;20084;-63
2023/06/16 06:28:11;;;;;;;8.93;6.30;;;17.40;99.90;;;;;;4127559;28;20117;-61
2023/06/16 06:30:12;;;;;;;10.63;7.35;;;17.30;99.90;;;;;;4132074;28;20097;-62
2023/06/16 06:32:13;;;;;;;9.02;6.80;;;17.40;99.90;;;;;;4130950;28;20487;-61
2023/06/16 06:34:14;;;;;;;12.73;7.55;;;17.40;99.90;;;;;;4131811;28;20030;-61
2023/06/16 06:36:27;;;;;;;13.80;6.85;;;17.30;99.90;;;;;;4130917;28;20034;-62
2023/06/16 06:38:28;;;;;;;11.60;6.53;;;17.40;99.90;;;;;;4131615;28;20439;-63
2023/06/16 06:40:29;;;;;;;9.88;6.88;;;17.40;99.90;;;;;;4131227;28;20104;-62
2023/06/16 06:42:30;;;;;;;14.73;6.95;;;17.40;99.90;;;;;;4131455;28;20034;-62
2023/06/16 06:44:31;;;;;;;13.27;7.07;;;17.50;99.90;;;;;;4131353;28;20080;-62
2023/06/16 06:46:33;;;;;;;12.95;6.80;;;17.50;99.90;;;;;;4131265;28;20479;-63
2023/06/16 06:48:34;;;;;;;17.17;7.22;;;17.50;99.90;;;;;;4131235;28;20050;-63
2023/06/16 06:50:35;;;;;;;10.90;6.05;;;17.60;99.90;;;;;;4130554;28;20085;-62
2023/06/16 06:52:36;;;;;;;11.52;6.07;;;17.50;99.90;;;;;;4131235;28;20483;-65
2023/06/16 06:54:37;;;;;;;8.20;5.82;;;17.60;99.90;;;;;;4130152;28;20487;-65
2023/06/16 06:56:39;;;;;;;10.45;5.78;;;17.70;99.90;;;;;;4131262;28;20080;-62
2023/06/16 06:58:40;;;;;;;9.25;5.40;;;17.70;99.90;;;;;;4130214;28;20049;-64
2023/06/16 07:00:41;;;;;;;7.95;5.60;;;17.70;99.90;;;;;;4131664;28;20081;-63
2023/06/16 07:02:42;;;;;;;8.32;5.90;;;17.60;99.90;;;;;;4130564;28;20042;-65
2023/06/16 07:04:44;;;;;;;10.50;5.85;;;17.70;99.90;;;;;;4131791;28;20034;-63
2023/06/16 07:06:45;;;;;;;9.75;5.28;;;17.80;99.90;;;;;;4130274;28;20422;-62
2023/06/16 07:08:46;;;;;;;10.40;5.68;;;17.80;99.90;;;;;;4131148;28;20073;-61
2023/06/16 07:10:47;;;;;;;11.05;5.13;;;17.90;99.90;;;;;;4130461;28;20097;-64
2023/06/16 07:12:48;;;;;;;8.52;4.65;;;17.90;99.90;;;;;;4130591;28;20022;-67
2023/06/16 07:14:49;;;;;;;9.68;4.57;;;18.00;99.90;;;;;;4145716;28;20026;-66
2023/06/16 07:16:50;;;;;;;5.88;3.95;;;18.10;99.90;;;;;;4130783;28;20030;-68
2023/06/16 07:18:52;;;;;;;15.02;5.57;;;18.20;99.90;;;;;;4131030;28;20084;-68
2023/06/16 07:20:53;;;;;;;8.73;5.03;;;18.20;99.90;;;;;;4130069;28;20097;-66
2023/06/16 07:22:54;;;;;;;11.77;4.75;;;18.20;99.90;;;;;;4131103;28;20057;-75
2023/06/16 07:24:55;;;;;;;10.95;5.22;;;18.10;99.90;;;;;;4130125;28;20042;-66
2023/06/16 07:26:56;;;;;;;8.00;4.90;;;18.20;99.90;;;;;;4131084;28;20038;-63
2023/06/16 07:28:57;;;;;;;9.18;4.80;;;18.10;99.90;;;;;;4130024;28;20203;-69
2023/06/16 07:30:58;;;;;;;8.25;4.35;;;18.10;99.90;;;;;;4131040;28;20034;-69
2023/06/16 07:32:59;;;;;;;10.77;4.65;;;18.10;99.90;;;;;;4129901;28;20034;-65
2023/06/16 07:35:00;;;;;;;8.48;5.13;;;18.10;99.90;;;;;;4131098;28;20789;-67
2023/06/16 07:37:02;;;;;;;9.07;4.70;;;18.00;99.90;;;;;;4129238;28;20442;-68
2023/06/16 07:39:03;;;;;;;10.18;5.00;;;18.00;99.90;;;;;;4130708;28;20080;-69
2023/06/16 07:41:06;;;;;;;10.70;4.55;;;18.00;99.90;;;;;;4130043;28;20360;-67
2023/06/16 07:43:07;;;;;;;10.43;5.63;;;18.00;99.90;;;;;;4129768;28;20042;-70
2023/06/16 07:45:08;;;;;;;14.73;5.72;;;18.10;99.90;;;;;;4129867;28;20046;-71
2023/06/16 07:47:10;;;;;;;13.23;7.40;;;18.10;99.90;;;;;;4130833;28;20101;-69
2023/06/16 07:49:15;;;;;;;12.75;7.97;;;18.10;99.90;;;;;;4130651;28;20422;-62
2023/06/16 07:51:16;;;;;;;14.95;8.23;;;18.10;99.90;;;;;;4129838;28;20076;-66
2023/06/16 07:53:17;;;;;;;11.77;8.52;;;18.00;99.90;;;;;;4130698;28;20038;-69
2023/06/16 07:55:19;;;;;;;14.30;10.27;;;18.00;99.90;;;;;;4129582;28;20482;-67
2023/06/16 07:57:20;;;;;;;14.98;8.50;;;17.90;99.90;;;;;;4130843;28;20092;-63
2023/06/16 07:59:21;;;;;;;18.98;9.63;;;17.80;99.90;;;;;;4143985;28;20446;-69
2023/06/16 08:01:23;;;;;;;16.95;9.48;;;17.70;99.90;;;;;;4128882;28;20043;-67
2023/06/16 08:03:24;;;;;;;15.80;9.48;;;17.70;99.90;;;;;;4129160;28;20038;-65
2023/06/16 08:05:25;;;;;;;17.70;10.45;;;17.60;99.90;;;;;;4130739;28;20046;-70
2023/06/16 08:07:26;;;;;;;13.10;8.70;;;17.60;99.90;;;;;;4129143;28;20031;-67
2023/06/16 08:09:28;;;;;;;17.02;9.27;;;17.60;99.90;;;;;;4130227;28;20046;-68
2023/06/16 08:11:29;;;;;;;14.75;9.65;;;17.60;99.90;;;;;;4129660;28;20038;-64
2023/06/16 08:13:30;;;;;;;13.80;8.50;;;17.60;99.90;;;;;;4144295;28;20089;-65
2023/06/16 08:15:31;;;;;;;15.68;9.10;;;17.60;99.90;;;;;;4129922;28;20034;-64
2023/06/16 08:17:32;;;;;;;14.48;8.73;;;17.60;99.90;;;;;;4129537;28;20042;-65
2023/06/16 08:19:33;;;;;;;15.73;9.27;;;17.60;99.90;;;;;;4129829;28;20034;-63
2023/06/16 08:21:35;;;;;;;12.20;7.45;;;17.60;99.90;;;;;;4128553;28;20073;-63
2023/06/16 08:23:36;;;;;;;13.77;7.63;;;17.70;99.90;;;;;;4128771;28;20042;-64
2023/06/16 08:25:37;;;;;;;13.75;7.82;;;17.80;99.90;;;;;;4129350;28;20100;-64
2023/06/16 08:27:39;;;;;;;11.77;8.02;;;17.80;99.90;;;;;;4130412;28;20451;-65
2023/06/16 08:29:41;;;;;;;11.73;6.90;;;17.90;99.90;;;;;;4129024;28;20034;-66
2023/06/16 08:31:42;;;;;;;14.88;8.05;;;17.80;99.90;;;;;;4130347;28;20413;-67
2023/06/16 08:33:43;;;;;;;13.82;8.18;;;17.90;99.90;;;;;;4142760;28;20050;-62
2023/06/16 08:35:44;;;;;;;12.25;7.75;;;17.80;99.90;;;;;;4130347;28;20089;-66
2023/06/16 08:37:45;;;;;;;10.55;7.15;;;17.90;99.90;;;;;;4128928;28;20101;-63
2023/06/16 08:39:46;;;;;;;9.43;7.47;;;18.00;99.90;;;;;;4129579;28;20038;-63
2023/06/16 08:41:49;;;;;;;9.02;6.90;;;17.90;99.90;;;;;;4127194;28;20081;-64
2023/06/16 08:43:52;;;;;;;9.30;6.25;;;18.00;99.90;;;;;;4128979;28;20056;-64
2023/06/16 08:45:55;;;;;;;8.55;6.03;;;18.00;99.90;;;;;;4127656;28;20073;-63
2023/06/16 08:47:57;;;;;;;9.00;6.72;;;18.00;99.90;;;;;;4129194;28;20038;-72
2023/06/16 08:49:58;;;;;;;9.20;6.75;;;18.00;99.90;;;;;;4129294;28;20081;-63
2023/06/16 08:52:02;;;;;;;10.60;5.85;;;18.00;99.90;;;;;;4127794;28;20082;-68
2023/06/16 08:54:07;;;;;;;9.35;6.40;;;17.90;99.90;;;;;;4129755;28;20538;-65
2023/06/16 08:56:10;;;;;;;8.30;6.38;;;18.00;99.90;;;;;;4143510;28;20072;-65
2023/06/16 08:58:13;;;;;;;9.48;7.05;;;17.90;99.90;;;;;;4129923;28;20414;-71
2023/06/16 09:00:15;;;;;;;13.13;7.38;;;17.90;99.90;;;;;;4128677;28;20081;-65
2023/06/16 09:02:17;;;;;;;7.75;6.22;;;18.00;99.90;;;;;;4129678;28;20313;-65
2023/06/16 09:04:19;;;;;;;8.40;5.82;;;18.00;99.90;;;;;;4128508;28;20077;-69
2023/06/16 09:06:20;;;;;;;9.38;6.57;;;18.00;99.90;;;;;;4129779;28;20038;-69
2023/06/16 09:08:21;;;;;;;7.25;6.47;;;18.00;99.90;;;;;;4128343;28;20085;-66
2023/06/16 09:10:22;;;;;;;8.88;6.50;;;17.90;99.90;;;;;;4129301;28;20053;-69
2023/06/16 09:12:23;;;;;;;9.73;6.68;;;17.90;99.90;;;;;;4128064;28;20141;-65
2023/06/16 09:14:31;;;;;;;9.80;5.95;;;17.90;99.90;;;;;;4129358;28;20027;-66
2023/06/16 09:16:32;;;;;;;9.35;5.90;;;17.80;99.90;;;;;;4128845;28;20105;-65
2023/06/16 09:18:37;;;;;;;11.05;6.75;;;17.90;99.90;;;;;;4128952;28;20026;-65
2023/06/16 09:20:41;;;;;;;9.32;6.93;;;17.90;99.90;;;;;;4128519;28;20438;-65
2023/06/16 09:22:42;;;;;;;13.60;6.22;;;17.90;99.90;;;;;;4128817;28;20038;-64
2023/06/16 09:24:54;;;;;;;9.65;7.22;;;17.90;99.90;;;;;;4128569;28;20081;-68
2023/06/16 09:26:59;;;;;;;9.32;6.70;;;18.00;99.90;;;;;;4128316;28;20026;-66
2023/06/16 09:29:00;;;;;;;12.38;6.82;;;18.00;99.90;;;;;;4128854;28;20034;-68
2023/06/16 09:31:06;;;;;;;10.65;8.00;;;18.10;99.90;;;;;;4128046;28;20112;-65
2023/06/16 09:33:09;;;;;;;9.48;6.82;;;18.10;99.90;;;;;;4143192;28;20426;-66
2023/06/16 09:35:19;;;;;;;8.10;6.63;;;18.20;99.90;;;;;;4127955;28;20030;-62
2023/06/16 09:37:20;;;;;;;10.45;6.93;;;18.10;99.90;;;;;;4128876;28;20030;-66
2023/06/16 09:39:26;;;;;;;8.90;6.50;;;18.20;99.90;;;;;;4128091;28;20085;-68
2023/06/16 09:41:27;;;;;;;11.00;7.13;;;18.10;99.90;;;;;;4129355;28;20018;-65
2023/06/16 09:43:29;;;;;;;9.50;7.07;;;18.10;99.90;;;;;;4128064;28;20081;-65
2023/06/16 09:45:32;;;;;;;9.55;7.53;;;18.20;99.90;;;;;;4129319;28;20038;-69
2023/06/16 09:47:33;;;;;;;10.55;7.95;;;18.10;99.90;;;;;;4128310;28;20050;-63
2023/06/16 09:49:34;;;;;;;9.43;6.82;;;18.10;99.90;;;;;;4128643;28;20105;-70
2023/06/16 09:51:36;;;;;;;8.68;7.20;;;18.20;99.90;;;;;;4127567;28;20121;-65
2023/06/16 09:53:40;;;;;;;12.50;7.45;;;18.30;99.90;;;;;;4129164;28;20022;-69
2023/06/16 09:55:41;;;;;;;7.28;6.38;;;18.30;99.90;;;;;;4127513;28;20109;-66
2023/06/16 09:57:43;;;;;;;6.65;5.55;;;18.40;99.90;;;;;;4128771;28;20031;-66
2023/06/16 09:59:45;;;;;;;6.60;5.85;;;18.50;99.90;;;;;;4127532;28;20085;-63
2023/06/16 10:01:47;;;;;;;8.52;6.18;;;18.40;99.90;;;;;;4142851;28;20041;-64
2023/06/16 10:03:50;;;;;;;7.32;6.10;;;18.50;99.90;;;;;;4127983;28;20077;-65
2023/06/16 10:05:54;;;;;;;6.80;5.95;;;18.50;99.90;;;;;;4128325;28;20034;-64
2023/06/16 10:07:57;;;;;;;5.95;5.25;;;18.70;99.90;;;;;;4128401;28;20467;-62
2023/06/16 10:09:59;;;;;;;7.30;6.13;;;18.70;99.90;;;;;;4127608;28;20062;-66
2023/06/16 10:12:02;;;;;;;9.20;5.43;;;18.80;99.90;;;;;;4127963;28;20101;-63
2023/06/16 10:14:07;;;;;;;7.10;6.40;;;18.90;99.90;;;;;;4127583;28;20085;-67
2023/06/16 10:16:11;;;;;;;6.22;4.70;;;19.00;99.90;;;;;;4129025;28;20018;-65
2023/06/16 10:18:16;;;;;;;7.03;5.07;;;19.10;99.90;;;;;;4127831;28;20026;-66
2023/06/16 10:20:20;;;;;;;6.18;5.25;;;19.20;99.90;;;;;;4128827;28;20434;-64
2023/06/16 10:22:22;;;;;;;5.75;4.88;;;19.20;99.90;;;;;;4127416;28;20030;-69
2023/06/16 10:24:24;;;;;;;5.28;4.40;;;19.30;99.90;;;;;;4142614;28;20100;-65
2023/06/16 10:26:26;;;;;;;5.35;4.60;;;19.30;99.90;;;;;;4127827;28;20632;-67
2023/06/16 10:28:29;;;;;;;5.47;4.70;;;19.40;99.90;;;;;;4128762;28;20031;-64
2023/06/16 10:30:31;;;;;;;6.72;4.90;;;19.50;99.90;;;;;;4127121;28;20058;-66
2023/06/16 10:32:32;;;;;;;6.65;3.95;;;19.70;99.90;;;;;;4128005;28;20038;-63